sensor_id;sensor_type;location;lat;lon;timestamp;P1;durP1;ratioP1;P2;durP2;ratioP2
60502;SDS011;51448;51.660;5.824;2022-12-31T00:01:05;4.10;;;1.80;;
60502;SDS011;51448;51.660;5.824;2022-12-31T00:03:37;4.55;;;1.65;;
60502;SDS011;51448;51.660;5.824;2022-12-31T00:06:39;3.55;;;1.45;;
60502;SDS011;51448;51.660;5.824;2022-12-31T00:09:02;2.85;;;1.35;;
60502;SDS011;51448;51.660;5.824;2022-12-31T00:14:01;3.33;;;1.35;;
60502;SDS011;51448;51.660;5.824;2022-12-31T00:16:30;2.85;;;1.15;;
60502;SDS011;51448;51.660;5.824;2022-12-31T00:19:03;5.03;;;1.55;;
60502;SDS011;51448;51.660;5.824;2022-12-31T00:21:33;4.90;;;1.77;;
60502;SDS011;51448;51.660;5.824;2022-12-31T00:24:02;3.33;;;1.58;;
60502;SDS011;51448;51.660;5.824;2022-12-31T00:26:32;3.25;;;1.48;;
60502;SDS011;51448;51.660;5.824;2022-12-31T00:29:01;3.90;;;1.30;;
60502;SDS011;51448;51.660;5.824;2022-12-31T00:31:33;3.75;;;1.33;;
60502;SDS011;51448;51.660;5.824;2022-12-31T00:34:04;3.13;;;1.30;;
60502;SDS011;51448;51.660;5.824;2022-12-31T00:36:36;3.63;;;1.38;;
60502;SDS011;51448;51.660;5.824;2022-12-31T00:39:06;4.22;;;2.38;;
60502;SDS011;51448;51.660;5.824;2022-12-31T00:41:34;3.40;;;1.70;;
60502;SDS011;51448;51.660;5.824;2022-12-31T00:44:02;4.07;;;1.55;;
60502;SDS011;51448;51.660;5.824;2022-12-31T00:46:29;3.85;;;1.60;;
60502;SDS011;51448;51.660;5.824;2022-12-31T00:48:58;6.75;;;2.10;;
60502;SDS011;51448;51.660;5.824;2022-12-31T00:51:25;3.70;;;1.92;;
60502;SDS011;51448;51.660;5.824;2022-12-31T00:53:54;4.82;;;1.75;;
60502;SDS011;51448;51.660;5.824;2022-12-31T00:56:25;4.07;;;1.80;;
60502;SDS011;51448;51.660;5.824;2022-12-31T00:58:57;4.20;;;2.03;;
60502;SDS011;51448;51.660;5.824;2022-12-31T01:01:27;4.18;;;2.17;;
60502;SDS011;51448;51.660;5.824;2022-12-31T01:04:03;3.75;;;2.00;;
60502;SDS011;51448;51.660;5.824;2022-12-31T01:06:35;5.47;;;2.38;;
60502;SDS011;51448;51.660;5.824;2022-12-31T01:09:04;4.93;;;2.10;;
60502;SDS011;51448;51.660;5.824;2022-12-31T01:11:33;4.38;;;2.05;;
60502;SDS011;51448;51.660;5.824;2022-12-31T01:14:02;6.10;;;2.00;;
60502;SDS011;51448;51.660;5.824;2022-12-31T01:16:35;4.40;;;2.17;;
60502;SDS011;51448;51.660;5.824;2022-12-31T01:19:19;4.88;;;1.48;;
60502;SDS011;51448;51.660;5.824;2022-12-31T01:21:51;3.53;;;1.20;;
60502;SDS011;51448;51.660;5.824;2022-12-31T01:24:20;1.65;;;0.80;;
60502;SDS011;51448;51.660;5.824;2022-12-31T01:26:48;2.42;;;0.68;;
60502;SDS011;51448;51.660;5.824;2022-12-31T01:29:17;2.03;;;0.68;;
60502;SDS011;51448;51.660;5.824;2022-12-31T01:31:45;1.85;;;0.77;;
60502;SDS011;51448;51.660;5.824;2022-12-31T01:34:12;3.05;;;0.70;;
60502;SDS011;51448;51.660;5.824;2022-12-31T01:36:40;1.25;;;0.50;;
60502;SDS011;51448;51.660;5.824;2022-12-31T01:39:08;1.67;;;0.50;;
60502;SDS011;51448;51.660;5.824;2022-12-31T01:41:38;2.05;;;0.40;;
60502;SDS011;51448;51.660;5.824;2022-12-31T01:46:44;1.50;;;0.40;;
60502;SDS011;51448;51.660;5.824;2022-12-31T01:51:49;1.88;;;0.38;;
60502;SDS011;51448;51.660;5.824;2022-12-31T01:54:24;1.02;;;0.47;;
60502;SDS011;51448;51.660;5.824;2022-12-31T01:56:54;1.70;;;0.38;;
60502;SDS011;51448;51.660;5.824;2022-12-31T01:59:24;0.88;;;0.30;;
60502;SDS011;51448;51.660;5.824;2022-12-31T02:01:55;1.25;;;0.47;;
60502;SDS011;51448;51.660;5.824;2022-12-31T02:04:23;2.08;;;0.40;;
60502;SDS011;51448;51.660;5.824;2022-12-31T02:06:55;0.60;;;0.30;;
60502;SDS011;51448;51.660;5.824;2022-12-31T02:09:27;0.77;;;0.30;;
60502;SDS011;51448;51.660;5.824;2022-12-31T02:11:57;2.38;;;0.35;;
60502;SDS011;51448;51.660;5.824;2022-12-31T02:14:29;1.00;;;0.35;;
60502;SDS011;51448;51.660;5.824;2022-12-31T02:20:03;1.05;;;0.30;;
60502;SDS011;51448;51.660;5.824;2022-12-31T02:23:32;0.80;;;0.30;;
60502;SDS011;51448;51.660;5.824;2022-12-31T02:26:30;0.65;;;0.30;;
60502;SDS011;51448;51.660;5.824;2022-12-31T02:35:15;1.10;;;0.50;;
60502;SDS011;51448;51.660;5.824;2022-12-31T02:37:56;1.73;;;0.47;;
60502;SDS011;51448;51.660;5.824;2022-12-31T02:40:31;2.90;;;0.50;;
60502;SDS011;51448;51.660;5.824;2022-12-31T02:43:01;1.70;;;0.30;;
60502;SDS011;51448;51.660;5.824;2022-12-31T02:45:31;2.10;;;0.40;;
60502;SDS011;51448;51.660;5.824;2022-12-31T02:51:11;1.02;;;0.50;;
60502;SDS011;51448;51.660;5.824;2022-12-31T02:57:13;5.43;;;0.70;;
60502;SDS011;51448;51.660;5.824;2022-12-31T02:59:55;1.30;;;0.50;;
60502;SDS011;51448;51.660;5.824;2022-12-31T03:02:47;0.95;;;0.50;;
60502;SDS011;51448;51.660;5.824;2022-12-31T03:05:21;1.33;;;0.50;;
60502;SDS011;51448;51.660;5.824;2022-12-31T03:07:53;1.35;;;0.60;;
60502;SDS011;51448;51.660;5.824;2022-12-31T03:10:20;1.73;;;0.70;;
60502;SDS011;51448;51.660;5.824;2022-12-31T03:12:48;3.08;;;0.80;;
60502;SDS011;51448;51.660;5.824;2022-12-31T03:17:50;1.65;;;1.05;;
60502;SDS011;51448;51.660;5.824;2022-12-31T03:20:37;2.47;;;1.00;;
60502;SDS011;51448;51.660;5.824;2022-12-31T03:23:27;2.45;;;1.30;;
60502;SDS011;51448;51.660;5.824;2022-12-31T03:25:58;3.15;;;1.42;;
60502;SDS011;51448;51.660;5.824;2022-12-31T03:28:28;2.75;;;1.50;;
60502;SDS011;51448;51.660;5.824;2022-12-31T03:30:58;2.65;;;1.60;;
60502;SDS011;51448;51.660;5.824;2022-12-31T03:33:32;3.05;;;1.42;;
60502;SDS011;51448;51.660;5.824;2022-12-31T03:36:11;2.72;;;1.42;;
60502;SDS011;51448;51.660;5.824;2022-12-31T03:38:41;2.13;;;1.20;;
60502;SDS011;51448;51.660;5.824;2022-12-31T03:41:09;3.45;;;1.15;;
60502;SDS011;51448;51.660;5.824;2022-12-31T03:43:37;2.47;;;1.33;;
60502;SDS011;51448;51.660;5.824;2022-12-31T03:46:05;2.90;;;1.40;;
60502;SDS011;51448;51.660;5.824;2022-12-31T03:48:32;2.08;;;1.10;;
60502;SDS011;51448;51.660;5.824;2022-12-31T03:51:00;2.20;;;1.15;;
60502;SDS011;51448;51.660;5.824;2022-12-31T03:53:28;3.13;;;1.52;;
60502;SDS011;51448;51.660;5.824;2022-12-31T03:55:55;2.15;;;1.25;;
60502;SDS011;51448;51.660;5.824;2022-12-31T03:58:22;2.30;;;1.10;;
60502;SDS011;51448;51.660;5.824;2022-12-31T04:00:50;3.22;;;1.05;;
60502;SDS011;51448;51.660;5.824;2022-12-31T04:03:18;2.55;;;1.13;;
60502;SDS011;51448;51.660;5.824;2022-12-31T04:05:50;1.35;;;0.80;;
60502;SDS011;51448;51.660;5.824;2022-12-31T04:08:21;1.40;;;0.90;;
60502;SDS011;51448;51.660;5.824;2022-12-31T04:10:49;1.67;;;0.85;;
60502;SDS011;51448;51.660;5.824;2022-12-31T04:13:16;1.63;;;0.70;;
60502;SDS011;51448;51.660;5.824;2022-12-31T04:15:44;2.30;;;0.90;;
60502;SDS011;51448;51.660;5.824;2022-12-31T04:18:11;1.13;;;0.70;;
60502;SDS011;51448;51.660;5.824;2022-12-31T04:20:39;1.73;;;0.80;;
60502;SDS011;51448;51.660;5.824;2022-12-31T04:23:06;1.15;;;0.68;;
60502;SDS011;51448;51.660;5.824;2022-12-31T04:25:34;2.03;;;0.77;;
60502;SDS011;51448;51.660;5.824;2022-12-31T04:28:01;1.63;;;0.88;;
60502;SDS011;51448;51.660;5.824;2022-12-31T04:30:29;1.70;;;0.90;;
60502;SDS011;51448;51.660;5.824;2022-12-31T04:32:56;2.20;;;0.90;;
60502;SDS011;51448;51.660;5.824;2022-12-31T04:35:24;1.67;;;0.90;;
60502;SDS011;51448;51.660;5.824;2022-12-31T04:37:51;4.70;;;1.23;;
60502;SDS011;51448;51.660;5.824;2022-12-31T04:40:19;1.90;;;0.80;;
60502;SDS011;51448;51.660;5.824;2022-12-31T04:42:46;6.70;;;1.00;;
60502;SDS011;51448;51.660;5.824;2022-12-31T04:45:14;1.65;;;0.93;;
60502;SDS011;51448;51.660;5.824;2022-12-31T04:47:42;3.05;;;1.35;;
60502;SDS011;51448;51.660;5.824;2022-12-31T04:50:09;2.70;;;1.33;;
60502;SDS011;51448;51.660;5.824;2022-12-31T04:52:37;2.80;;;0.93;;
60502;SDS011;51448;51.660;5.824;2022-12-31T04:55:09;2.30;;;1.15;;
60502;SDS011;51448;51.660;5.824;2022-12-31T04:57:37;2.28;;;1.33;;
60502;SDS011;51448;51.660;5.824;2022-12-31T05:00:05;2.35;;;1.20;;
60502;SDS011;51448;51.660;5.824;2022-12-31T05:02:34;2.67;;;1.10;;
60502;SDS011;51448;51.660;5.824;2022-12-31T05:05:01;2.58;;;1.50;;
60502;SDS011;51448;51.660;5.824;2022-12-31T05:07:29;2.60;;;1.50;;
60502;SDS011;51448;51.660;5.824;2022-12-31T05:09:56;2.55;;;1.30;;
60502;SDS011;51448;51.660;5.824;2022-12-31T05:12:24;3.08;;;1.20;;
60502;SDS011;51448;51.660;5.824;2022-12-31T05:14:52;2.42;;;1.13;;
60502;SDS011;51448;51.660;5.824;2022-12-31T05:17:20;3.28;;;1.42;;
60502;SDS011;51448;51.660;5.824;2022-12-31T05:19:47;7.47;;;2.20;;
60502;SDS011;51448;51.660;5.824;2022-12-31T05:22:15;5.70;;;2.03;;
60502;SDS011;51448;51.660;5.824;2022-12-31T05:24:55;5.53;;;1.50;;
60502;SDS011;51448;51.660;5.824;2022-12-31T05:27:25;4.75;;;2.00;;
60502;SDS011;51448;51.660;5.824;2022-12-31T05:29:57;4.13;;;1.48;;
60502;SDS011;51448;51.660;5.824;2022-12-31T05:32:25;4.40;;;1.40;;
60502;SDS011;51448;51.660;5.824;2022-12-31T05:34:53;5.53;;;1.58;;
60502;SDS011;51448;51.660;5.824;2022-12-31T05:37:21;5.18;;;1.48;;
60502;SDS011;51448;51.660;5.824;2022-12-31T05:39:49;5.75;;;1.00;;
60502;SDS011;51448;51.660;5.824;2022-12-31T05:42:16;5.95;;;1.40;;
60502;SDS011;51448;51.660;5.824;2022-12-31T05:44:44;6.28;;;1.00;;
60502;SDS011;51448;51.660;5.824;2022-12-31T05:47:11;4.47;;;1.10;;
60502;SDS011;51448;51.660;5.824;2022-12-31T05:49:39;3.20;;;0.95;;
60502;SDS011;51448;51.660;5.824;2022-12-31T05:52:07;3.33;;;1.00;;
60502;SDS011;51448;51.660;5.824;2022-12-31T05:54:35;4.07;;;0.90;;
60502;SDS011;51448;51.660;5.824;2022-12-31T05:57:03;4.05;;;0.90;;
60502;SDS011;51448;51.660;5.824;2022-12-31T05:59:32;3.72;;;0.95;;
60502;SDS011;51448;51.660;5.824;2022-12-31T06:02:00;3.30;;;1.17;;
60502;SDS011;51448;51.660;5.824;2022-12-31T06:04:28;4.85;;;1.20;;
60502;SDS011;51448;51.660;5.824;2022-12-31T06:06:55;2.50;;;1.00;;
60502;SDS011;51448;51.660;5.824;2022-12-31T06:09:23;4.85;;;1.42;;
60502;SDS011;51448;51.660;5.824;2022-12-31T06:11:52;5.47;;;1.40;;
60502;SDS011;51448;51.660;5.824;2022-12-31T06:14:19;3.22;;;0.75;;
60502;SDS011;51448;51.660;5.824;2022-12-31T06:16:47;5.20;;;0.93;;
60502;SDS011;51448;51.660;5.824;2022-12-31T06:19:16;5.20;;;0.80;;
60502;SDS011;51448;51.660;5.824;2022-12-31T06:21:43;2.40;;;0.80;;
60502;SDS011;51448;51.660;5.824;2022-12-31T06:24:10;4.70;;;0.77;;
60502;SDS011;51448;51.660;5.824;2022-12-31T06:26:38;3.92;;;0.70;;
60502;SDS011;51448;51.660;5.824;2022-12-31T06:29:06;3.10;;;0.60;;
60502;SDS011;51448;51.660;5.824;2022-12-31T06:31:33;8.10;;;1.20;;
60502;SDS011;51448;51.660;5.824;2022-12-31T06:34:01;3.60;;;1.02;;
60502;SDS011;51448;51.660;5.824;2022-12-31T06:36:29;4.50;;;1.20;;
60502;SDS011;51448;51.660;5.824;2022-12-31T06:38:58;4.32;;;1.08;;
60502;SDS011;51448;51.660;5.824;2022-12-31T06:41:26;2.88;;;0.98;;
60502;SDS011;51448;51.660;5.824;2022-12-31T06:43:53;5.57;;;1.10;;
60502;SDS011;51448;51.660;5.824;2022-12-31T06:46:21;3.15;;;1.00;;
60502;SDS011;51448;51.660;5.824;2022-12-31T06:48:48;3.88;;;1.27;;
60502;SDS011;51448;51.660;5.824;2022-12-31T06:51:17;5.40;;;2.10;;
60502;SDS011;51448;51.660;5.824;2022-12-31T06:53:48;5.50;;;1.90;;
60502;SDS011;51448;51.660;5.824;2022-12-31T06:56:19;3.10;;;0.80;;
60502;SDS011;51448;51.660;5.824;2022-12-31T06:59:01;4.07;;;0.70;;
60502;SDS011;51448;51.660;5.824;2022-12-31T07:13:47;3.03;;;0.43;;
60502;SDS011;51448;51.660;5.824;2022-12-31T07:21:54;1.17;;;0.30;;
60502;SDS011;51448;51.660;5.824;2022-12-31T07:24:25;5.03;;;0.55;;
60502;SDS011;51448;51.660;5.824;2022-12-31T07:29:34;5.50;;;0.55;;
60502;SDS011;51448;51.660;5.824;2022-12-31T07:47:36;5.30;;;0.73;;
60502;SDS011;51448;51.660;5.824;2022-12-31T07:50:05;4.40;;;0.70;;
60502;SDS011;51448;51.660;5.824;2022-12-31T07:52:41;4.03;;;0.68;;
60502;SDS011;51448;51.660;5.824;2022-12-31T07:55:10;4.22;;;1.15;;
60502;SDS011;51448;51.660;5.824;2022-12-31T07:57:55;5.80;;;1.08;;
60502;SDS011;51448;51.660;5.824;2022-12-31T08:00:35;5.82;;;0.63;;
60502;SDS011;51448;51.660;5.824;2022-12-31T08:06:29;4.85;;;0.70;;
60502;SDS011;51448;51.660;5.824;2022-12-31T08:12:02;4.32;;;0.70;;
60502;SDS011;51448;51.660;5.824;2022-12-31T08:14:30;4.28;;;0.75;;
60502;SDS011;51448;51.660;5.824;2022-12-31T08:17:08;4.47;;;0.80;;
60502;SDS011;51448;51.660;5.824;2022-12-31T08:19:40;6.93;;;0.73;;
60502;SDS011;51448;51.660;5.824;2022-12-31T08:25:00;3.75;;;0.63;;
60502;SDS011;51448;51.660;5.824;2022-12-31T08:30:40;3.45;;;0.80;;
60502;SDS011;51448;51.660;5.824;2022-12-31T08:36:22;4.40;;;0.60;;
60502;SDS011;51448;51.660;5.824;2022-12-31T08:39:32;2.53;;;0.50;;
60502;SDS011;51448;51.660;5.824;2022-12-31T08:42:08;3.35;;;0.60;;
60502;SDS011;51448;51.660;5.824;2022-12-31T08:45:13;2.67;;;0.43;;
60502;SDS011;51448;51.660;5.824;2022-12-31T08:48:19;9.57;;;1.00;;
60502;SDS011;51448;51.660;5.824;2022-12-31T08:50:52;2.60;;;0.65;;
60502;SDS011;51448;51.660;5.824;2022-12-31T08:53:20;3.15;;;0.60;;
60502;SDS011;51448;51.660;5.824;2022-12-31T08:55:50;4.35;;;0.70;;
60502;SDS011;51448;51.660;5.824;2022-12-31T08:58:33;3.15;;;0.57;;
60502;SDS011;51448;51.660;5.824;2022-12-31T09:01:17;4.90;;;0.70;;
60502;SDS011;51448;51.660;5.824;2022-12-31T09:04:05;3.05;;;0.70;;
60502;SDS011;51448;51.660;5.824;2022-12-31T09:06:55;4.55;;;0.85;;
60502;SDS011;51448;51.660;5.824;2022-12-31T09:15:40;3.58;;;0.63;;
60502;SDS011;51448;51.660;5.824;2022-12-31T09:18:14;3.67;;;0.47;;
60502;SDS011;51448;51.660;5.824;2022-12-31T09:20:43;2.63;;;0.60;;
60502;SDS011;51448;51.660;5.824;2022-12-31T09:23:11;6.03;;;0.70;;
60502;SDS011;51448;51.660;5.824;2022-12-31T09:29:22;5.78;;;0.98;;
60502;SDS011;51448;51.660;5.824;2022-12-31T09:32:15;4.25;;;0.68;;
60502;SDS011;51448;51.660;5.824;2022-12-31T09:37:57;4.50;;;0.63;;
60502;SDS011;51448;51.660;5.824;2022-12-31T09:40:54;4.80;;;1.00;;
60502;SDS011;51448;51.660;5.824;2022-12-31T09:50:30;5.43;;;1.00;;
60502;SDS011;51448;51.660;5.824;2022-12-31T09:53:41;4.43;;;1.05;;
60502;SDS011;51448;51.660;5.824;2022-12-31T09:56:38;5.28;;;0.90;;
60502;SDS011;51448;51.660;5.824;2022-12-31T09:59:31;4.40;;;1.00;;
60502;SDS011;51448;51.660;5.824;2022-12-31T10:10:58;5.88;;;0.90;;
60502;SDS011;51448;51.660;5.824;2022-12-31T10:29:16;4.40;;;0.82;;
60502;SDS011;51448;51.660;5.824;2022-12-31T10:35:00;6.63;;;1.80;;
60502;SDS011;51448;51.660;5.824;2022-12-31T10:41:10;5.82;;;0.98;;
60502;SDS011;51448;51.660;5.824;2022-12-31T10:47:35;4.43;;;1.17;;
60502;SDS011;51448;51.660;5.824;2022-12-31T10:53:21;5.95;;;0.90;;
60502;SDS011;51448;51.660;5.824;2022-12-31T11:09:02;5.75;;;1.17;;
60502;SDS011;51448;51.660;5.824;2022-12-31T11:15:15;4.75;;;0.95;;
60502;SDS011;51448;51.660;5.824;2022-12-31T11:17:52;5.57;;;1.10;;
60502;SDS011;51448;51.660;5.824;2022-12-31T11:20:48;4.95;;;1.08;;
60502;SDS011;51448;51.660;5.824;2022-12-31T11:23:34;6.77;;;1.10;;
60502;SDS011;51448;51.660;5.824;2022-12-31T11:40:20;6.68;;;1.05;;
60502;SDS011;51448;51.660;5.824;2022-12-31T11:48:24;7.78;;;1.35;;
60502;SDS011;51448;51.660;5.824;2022-12-31T11:54:32;7.63;;;1.25;;
60502;SDS011;51448;51.660;5.824;2022-12-31T12:00:13;6.47;;;1.58;;
60502;SDS011;51448;51.660;5.824;2022-12-31T12:03:02;5.53;;;2.00;;
60502;SDS011;51448;51.660;5.824;2022-12-31T12:05:33;6.75;;;1.30;;
60502;SDS011;51448;51.660;5.824;2022-12-31T12:08:04;8.95;;;1.45;;
60502;SDS011;51448;51.660;5.824;2022-12-31T12:10:38;9.30;;;1.23;;
60502;SDS011;51448;51.660;5.824;2022-12-31T12:13:22;7.43;;;1.58;;
60502;SDS011;51448;51.660;5.824;2022-12-31T12:15:58;7.72;;;1.20;;
60502;SDS011;51448;51.660;5.824;2022-12-31T12:18:32;4.88;;;1.35;;
60502;SDS011;51448;51.660;5.824;2022-12-31T12:21:19;8.13;;;1.52;;
60502;SDS011;51448;51.660;5.824;2022-12-31T12:26:38;9.10;;;1.45;;
60502;SDS011;51448;51.660;5.824;2022-12-31T12:29:14;7.05;;;1.20;;
60502;SDS011;51448;51.660;5.824;2022-12-31T12:34:55;7.75;;;1.40;;
60502;SDS011;51448;51.660;5.824;2022-12-31T12:39:54;7.18;;;1.50;;
60502;SDS011;51448;51.660;5.824;2022-12-31T12:42:32;6.18;;;1.10;;
60502;SDS011;51448;51.660;5.824;2022-12-31T12:45:01;5.30;;;1.27;;
60502;SDS011;51448;51.660;5.824;2022-12-31T12:47:43;6.88;;;1.45;;
60502;SDS011;51448;51.660;5.824;2022-12-31T12:50:16;9.35;;;1.30;;
60502;SDS011;51448;51.660;5.824;2022-12-31T12:53:09;6.70;;;1.33;;
60502;SDS011;51448;51.660;5.824;2022-12-31T12:57:07;5.57;;;1.25;;
60502;SDS011;51448;51.660;5.824;2022-12-31T13:11:54;7.78;;;1.85;;
60502;SDS011;51448;51.660;5.824;2022-12-31T13:14:48;9.38;;;1.95;;
60502;SDS011;51448;51.660;5.824;2022-12-31T13:23:51;5.18;;;1.27;;
60502;SDS011;51448;51.660;5.824;2022-12-31T13:26:35;6.15;;;1.33;;
60502;SDS011;51448;51.660;5.824;2022-12-31T13:29:21;6.53;;;1.52;;
60502;SDS011;51448;51.660;5.824;2022-12-31T13:31:54;7.18;;;1.45;;
60502;SDS011;51448;51.660;5.824;2022-12-31T13:34:31;5.75;;;1.63;;
60502;SDS011;51448;51.660;5.824;2022-12-31T13:37:13;6.50;;;1.90;;
60502;SDS011;51448;51.660;5.824;2022-12-31T13:40:02;5.60;;;1.30;;
60502;SDS011;51448;51.660;5.824;2022-12-31T13:43:05;7.70;;;2.00;;
60502;SDS011;51448;51.660;5.824;2022-12-31T13:45:47;6.60;;;1.40;;
60502;SDS011;51448;51.660;5.824;2022-12-31T13:51:06;5.15;;;1.52;;
60502;SDS011;51448;51.660;5.824;2022-12-31T13:56:30;7.05;;;1.60;;
60502;SDS011;51448;51.660;5.824;2022-12-31T13:59:05;7.05;;;1.60;;
60502;SDS011;51448;51.660;5.824;2022-12-31T14:01:52;8.80;;;1.73;;
60502;SDS011;51448;51.660;5.824;2022-12-31T14:04:49;8.93;;;1.95;;
60502;SDS011;51448;51.660;5.824;2022-12-31T14:07:30;8.45;;;2.10;;
60502;SDS011;51448;51.660;5.824;2022-12-31T14:10:12;8.20;;;1.98;;
60502;SDS011;51448;51.660;5.824;2022-12-31T14:16:15;9.88;;;2.10;;
60502;SDS011;51448;51.660;5.824;2022-12-31T14:25:04;9.60;;;2.40;;
60502;SDS011;51448;51.660;5.824;2022-12-31T14:27:43;12.55;;;3.15;;
60502;SDS011;51448;51.660;5.824;2022-12-31T14:30:20;8.13;;;2.20;;
60502;SDS011;51448;51.660;5.824;2022-12-31T14:36:11;8.48;;;2.38;;
60502;SDS011;51448;51.660;5.824;2022-12-31T14:41:40;13.77;;;2.63;;
60502;SDS011;51448;51.660;5.824;2022-12-31T14:51:08;9.80;;;2.00;;
60502;SDS011;51448;51.660;5.824;2022-12-31T14:53:38;9.27;;;2.40;;
60502;SDS011;51448;51.660;5.824;2022-12-31T14:56:23;17.42;;;3.03;;
60502;SDS011;51448;51.660;5.824;2022-12-31T14:59:36;9.27;;;2.15;;
60502;SDS011;51448;51.660;5.824;2022-12-31T15:02:24;10.68;;;2.45;;
60502;SDS011;51448;51.660;5.824;2022-12-31T15:05:03;10.85;;;2.75;;
60502;SDS011;51448;51.660;5.824;2022-12-31T15:10:15;9.20;;;2.72;;
60502;SDS011;51448;51.660;5.824;2022-12-31T15:13:06;10.68;;;2.72;;
60502;SDS011;51448;51.660;5.824;2022-12-31T15:22:50;12.10;;;2.47;;
60502;SDS011;51448;51.660;5.824;2022-12-31T15:25:21;10.77;;;3.80;;
60502;SDS011;51448;51.660;5.824;2022-12-31T15:27:58;12.93;;;3.95;;
60502;SDS011;51448;51.660;5.824;2022-12-31T15:33:07;8.70;;;2.42;;
60502;SDS011;51448;51.660;5.824;2022-12-31T15:35:51;9.48;;;2.50;;
60502;SDS011;51448;51.660;5.824;2022-12-31T15:38:35;8.70;;;2.95;;
60502;SDS011;51448;51.660;5.824;2022-12-31T15:43:49;9.00;;;2.10;;
60502;SDS011;51448;51.660;5.824;2022-12-31T15:46:28;7.70;;;2.08;;
60502;SDS011;51448;51.660;5.824;2022-12-31T15:49:39;9.10;;;3.15;;
60502;SDS011;51448;51.660;5.824;2022-12-31T15:52:10;7.63;;;2.17;;
60502;SDS011;51448;51.660;5.824;2022-12-31T15:54:44;7.10;;;2.40;;
60502;SDS011;51448;51.660;5.824;2022-12-31T15:57:28;8.80;;;2.40;;
60502;SDS011;51448;51.660;5.824;2022-12-31T16:00:05;8.93;;;2.13;;
60502;SDS011;51448;51.660;5.824;2022-12-31T16:02:50;7.43;;;2.55;;
60502;SDS011;51448;51.660;5.824;2022-12-31T16:05:22;11.52;;;3.00;;
60502;SDS011;51448;51.660;5.824;2022-12-31T16:07:55;9.75;;;2.75;;
60502;SDS011;51448;51.660;5.824;2022-12-31T16:10:28;9.55;;;3.28;;
60502;SDS011;51448;51.660;5.824;2022-12-31T16:12:58;9.95;;;5.85;;
60502;SDS011;51448;51.660;5.824;2022-12-31T16:15:27;9.90;;;3.90;;
60502;SDS011;51448;51.660;5.824;2022-12-31T16:18:00;9.43;;;3.17;;
60502;SDS011;51448;51.660;5.824;2022-12-31T16:20:32;7.57;;;3.08;;
60502;SDS011;51448;51.660;5.824;2022-12-31T16:25:54;8.23;;;3.00;;
60502;SDS011;51448;51.660;5.824;2022-12-31T16:28:31;9.57;;;2.58;;
60502;SDS011;51448;51.660;5.824;2022-12-31T16:31:00;12.93;;;2.40;;
60502;SDS011;51448;51.660;5.824;2022-12-31T16:33:32;8.52;;;2.67;;
60502;SDS011;51448;51.660;5.824;2022-12-31T16:36:00;8.05;;;2.25;;
60502;SDS011;51448;51.660;5.824;2022-12-31T16:38:32;9.90;;;2.70;;
60502;SDS011;51448;51.660;5.824;2022-12-31T16:41:12;10.55;;;2.90;;
60502;SDS011;51448;51.660;5.824;2022-12-31T16:43:46;7.18;;;2.50;;
60502;SDS011;51448;51.660;5.824;2022-12-31T16:46:18;9.02;;;2.30;;
60502;SDS011;51448;51.660;5.824;2022-12-31T16:48:54;7.30;;;2.50;;
60502;SDS011;51448;51.660;5.824;2022-12-31T16:51:28;7.85;;;2.30;;
60502;SDS011;51448;51.660;5.824;2022-12-31T16:54:00;7.40;;;2.53;;
60502;SDS011;51448;51.660;5.824;2022-12-31T16:56:32;7.63;;;2.13;;
60502;SDS011;51448;51.660;5.824;2022-12-31T16:59:12;7.68;;;2.40;;
60502;SDS011;51448;51.660;5.824;2022-12-31T17:02:12;7.65;;;2.20;;
60502;SDS011;51448;51.660;5.824;2022-12-31T17:04:47;6.72;;;2.03;;
60502;SDS011;51448;51.660;5.824;2022-12-31T17:12:39;26.02;;;13.27;;
60502;SDS011;51448;51.660;5.824;2022-12-31T17:15:37;9.00;;;2.45;;
60502;SDS011;51448;51.660;5.824;2022-12-31T17:18:29;7.82;;;2.40;;
60502;SDS011;51448;51.660;5.824;2022-12-31T17:21:05;6.63;;;2.00;;
60502;SDS011;51448;51.660;5.824;2022-12-31T17:23:36;10.13;;;3.17;;
60502;SDS011;51448;51.660;5.824;2022-12-31T17:26:10;11.13;;;3.28;;
60502;SDS011;51448;51.660;5.824;2022-12-31T17:28:42;7.30;;;2.90;;
60502;SDS011;51448;51.660;5.824;2022-12-31T17:31:26;8.65;;;2.63;;
60502;SDS011;51448;51.660;5.824;2022-12-31T17:36:40;8.15;;;2.42;;
60502;SDS011;51448;51.660;5.824;2022-12-31T17:39:24;9.40;;;4.63;;
60502;SDS011;51448;51.660;5.824;2022-12-31T17:42:06;8.82;;;2.90;;
60502;SDS011;51448;51.660;5.824;2022-12-31T17:44:37;16.63;;;10.45;;
60502;SDS011;51448;51.660;5.824;2022-12-31T17:47:10;8.73;;;2.45;;
60502;SDS011;51448;51.660;5.824;2022-12-31T17:49:43;6.72;;;2.75;;
60502;SDS011;51448;51.660;5.824;2022-12-31T17:52:13;12.68;;;6.47;;
60502;SDS011;51448;51.660;5.824;2022-12-31T17:54:41;11.35;;;4.35;;
60502;SDS011;51448;51.660;5.824;2022-12-31T17:57:16;9.93;;;5.70;;
60502;SDS011;51448;51.660;5.824;2022-12-31T17:59:52;6.97;;;2.60;;
60502;SDS011;51448;51.660;5.824;2022-12-31T18:02:20;9.10;;;2.92;;
60502;SDS011;51448;51.660;5.824;2022-12-31T18:04:47;9.75;;;2.30;;
60502;SDS011;51448;51.660;5.824;2022-12-31T18:07:15;7.78;;;2.08;;
60502;SDS011;51448;51.660;5.824;2022-12-31T18:09:42;6.90;;;2.50;;
60502;SDS011;51448;51.660;5.824;2022-12-31T18:12:10;8.23;;;2.90;;
60502;SDS011;51448;51.660;5.824;2022-12-31T18:14:41;7.18;;;2.47;;
60502;SDS011;51448;51.660;5.824;2022-12-31T18:17:14;6.68;;;1.90;;
60502;SDS011;51448;51.660;5.824;2022-12-31T18:19:42;14.27;;;4.05;;
60502;SDS011;51448;51.660;5.824;2022-12-31T18:22:30;7.78;;;2.30;;
60502;SDS011;51448;51.660;5.824;2022-12-31T18:24:57;9.75;;;2.72;;
60502;SDS011;51448;51.660;5.824;2022-12-31T18:27:25;8.73;;;3.08;;
60502;SDS011;51448;51.660;5.824;2022-12-31T18:29:53;7.90;;;2.80;;
60502;SDS011;51448;51.660;5.824;2022-12-31T18:32:30;8.95;;;3.05;;
60502;SDS011;51448;51.660;5.824;2022-12-31T18:34:59;8.75;;;3.13;;
60502;SDS011;51448;51.660;5.824;2022-12-31T18:37:28;11.43;;;3.95;;
60502;SDS011;51448;51.660;5.824;2022-12-31T18:40:02;11.73;;;5.28;;
60502;SDS011;51448;51.660;5.824;2022-12-31T18:42:31;11.63;;;3.15;;
60502;SDS011;51448;51.660;5.824;2022-12-31T18:44:59;13.80;;;5.90;;
60502;SDS011;51448;51.660;5.824;2022-12-31T18:47:27;11.68;;;4.90;;
60502;SDS011;51448;51.660;5.824;2022-12-31T18:50:04;11.60;;;3.83;;
60502;SDS011;51448;51.660;5.824;2022-12-31T18:52:33;9.85;;;2.95;;
60502;SDS011;51448;51.660;5.824;2022-12-31T18:55:04;9.68;;;3.28;;
60502;SDS011;51448;51.660;5.824;2022-12-31T18:57:51;9.25;;;3.28;;
60502;SDS011;51448;51.660;5.824;2022-12-31T19:00:18;12.27;;;4.00;;
60502;SDS011;51448;51.660;5.824;2022-12-31T19:02:46;9.48;;;2.92;;
60502;SDS011;51448;51.660;5.824;2022-12-31T19:05:24;7.45;;;3.08;;
60502;SDS011;51448;51.660;5.824;2022-12-31T19:07:55;25.55;;;16.27;;
60502;SDS011;51448;51.660;5.824;2022-12-31T19:10:24;9.27;;;3.88;;
60502;SDS011;51448;51.660;5.824;2022-12-31T19:12:53;12.10;;;5.15;;
60502;SDS011;51448;51.660;5.824;2022-12-31T19:15:26;11.48;;;5.20;;
60502;SDS011;51448;51.660;5.824;2022-12-31T19:17:59;10.75;;;3.97;;
60502;SDS011;51448;51.660;5.824;2022-12-31T19:20:28;11.32;;;3.97;;
60502;SDS011;51448;51.660;5.824;2022-12-31T19:22:57;10.07;;;3.90;;
60502;SDS011;51448;51.660;5.824;2022-12-31T19:25:25;9.63;;;3.00;;
60502;SDS011;51448;51.660;5.824;2022-12-31T19:28:00;8.95;;;3.10;;
60502;SDS011;51448;51.660;5.824;2022-12-31T19:30:30;10.32;;;2.70;;
60502;SDS011;51448;51.660;5.824;2022-12-31T19:33:00;9.67;;;2.87;;
60502;SDS011;51448;51.660;5.824;2022-12-31T19:35:27;10.93;;;2.72;;
60502;SDS011;51448;51.660;5.824;2022-12-31T19:37:55;9.60;;;3.00;;
60502;SDS011;51448;51.660;5.824;2022-12-31T19:40:24;8.32;;;2.78;;
60502;SDS011;51448;51.660;5.824;2022-12-31T19:42:55;8.93;;;2.38;;
60502;SDS011;51448;51.660;5.824;2022-12-31T19:45:27;9.93;;;2.80;;
60502;SDS011;51448;51.660;5.824;2022-12-31T19:47:55;10.13;;;2.60;;